Terminal Aerodrome Forecast
Issued by NWS Cleveland, OH

Home | Current Version | Previous Version | Graphics & Text | Print | Product List | Glossary On
Versions: 1 2 3 4 5 6 7 8 9 10 11 12 13 14 15 16 17 18 19 20 21 22 23 24 25 26 27 28
000
FTUS41 KCLE 240259 AAA
TAFCLE
TAF AMD
KCLE 240259Z 2403/2506 10005KT P6SM BKN040
      TEMPO 2403/2406 4SM -SHRA BR OVC025
     FM240900 15008KT P6SM BKN035
     FM241600 19017G26KT P6SM SCT050
     FM250400 19013KT P6SM -SHRA BKN040=

USA.gov is the U.S. government's official web portal to all federal, state and local government web resources and services.